Time;durP1;ratioP1;P1;durP2;ratioP2;P2;SDS_P1;SDS_P2;PMS_P1;PMS_P2;Temp;Humidity;BMP_temperature;BMP_pressure;BME280_temperature;BME280_humidity;BME280_pressure;Samples;Min_cycle;Max_cycle;Signal;HPM_P1;HPM_P2
2023/07/17 00:00:15;;;;;;;3.80;1.80;;;;;;;17.01;100.00;100317.41;104498;1268;65878;-66
2023/07/17 00:02:43;;;;;;;2.90;2.10;;;;;;;16.98;100.00;100325.48;104721;1270;71356;-67
2023/07/17 00:05:11;;;;;;;5.40;1.90;;;;;;;16.94;100.00;100327.48;104638;1270;61243;-71
2023/07/17 00:07:39;;;;;;;6.00;2.40;;;;;;;16.91;100.00;100326.88;105005;1267;61171;-63
2023/07/17 00:10:08;;;;;;;4.10;1.70;;;;;;;16.89;100.00;100328.77;104835;1269;74663;-64
2023/07/17 00:12:36;;;;;;;2.70;1.60;;;;;;;16.86;100.00;100328.39;104653;1268;67229;-67
2023/07/17 00:15:07;;;;;;;3.70;1.90;;;;;;;16.84;100.00;100330.01;104759;1265;71513;-65
2023/07/17 00:17:36;;;;;;;4.60;2.20;;;;;;;16.80;100.00;100331.54;104438;1268;61395;-64
2023/07/17 00:20:10;;;;;;;4.10;2.20;;;;;;;16.77;100.00;100335.35;104533;1264;61269;-64
2023/07/17 00:22:37;;;;;;;4.80;2.40;;;;;;;16.73;100.00;100333.23;104861;1263;73541;-65
2023/07/17 00:25:05;;;;;;;4.20;2.10;;;;;;;16.68;100.00;100334.08;104713;1267;67043;-70
2023/07/17 00:27:34;;;;;;;4.10;1.70;;;;;;;16.63;100.00;100329.09;104545;1277;72518;-64
2023/07/17 00:30:01;;;;;;;6.60;2.10;;;;;;;16.58;100.00;100331.46;104733;1268;61790;-63
2023/07/17 00:32:28;;;;;;;3.20;2.20;;;;;;;16.52;100.00;100328.70;104424;1264;61367;-69
2023/07/17 00:34:57;;;;;;;4.90;2.10;;;;;;;16.47;100.00;100332.55;104271;1268;75064;-69
2023/07/17 00:37:24;;;;;;;3.80;2.50;;;;;;;16.43;100.00;100332.52;104292;1267;65758;-63
2023/07/17 00:39:51;;;;;;;5.40;2.10;;;;;;;16.36;100.00;100332.02;104565;1268;72781;-67
2023/07/17 00:42:20;;;;;;;3.30;2.00;;;;;;;16.29;100.00;100331.98;104778;1264;61272;-66
2023/07/17 00:44:47;;;;;;;6.70;2.20;;;;;;;16.24;100.00;100334.86;105052;1270;61319;-71
2023/07/17 00:47:14;;;;;;;3.70;1.90;;;;;;;16.21;100.00;100339.15;104261;1277;75210;-66
2023/07/17 00:49:41;;;;;;;3.50;1.90;;;;;;;16.20;100.00;100337.05;105223;1267;67574;-67
2023/07/17 00:52:10;;;;;;;5.30;2.10;;;;;;;16.22;100.00;100336.34;104564;1269;71608;-65
2023/07/17 00:54:39;;;;;;;3.40;1.80;;;;;;;16.24;100.00;100332.48;104318;1275;61354;-67
2023/07/17 00:57:06;;;;;;;4.20;2.30;;;;;;;16.29;100.00;100334.77;104672;1264;61251;-67
2023/07/17 00:59:37;;;;;;;4.20;1.60;;;;;;;16.32;100.00;100329.52;104705;1269;74501;-65
2023/07/17 01:02:04;;;;;;;3.10;2.00;;;;;;;16.34;100.00;100330.75;104640;1263;67031;-64
2023/07/17 01:04:32;;;;;;;5.60;2.50;;;;;;;16.35;100.00;100333.54;104841;1267;72711;-69
2023/07/17 01:06:59;;;;;;;2.90;1.70;;;;;;;16.36;100.00;100332.31;104689;1267;62958;-68
2023/07/17 01:09:28;;;;;;;4.50;2.10;;;;;;;16.36;100.00;100331.13;105259;1267;61347;-65
2023/07/17 01:11:55;;;;;;;3.90;2.50;;;;;;;16.37;100.00;100330.73;104676;1270;74777;-66
2023/07/17 01:14:23;;;;;;;4.00;2.00;;;;;;;16.38;100.00;100337.23;104714;1264;67108;-65
2023/07/17 01:16:50;;;;;;;3.70;2.20;;;;;;;16.40;100.00;100338.50;104982;1268;72403;-69
2023/07/17 01:19:17;;;;;;;3.40;1.80;;;;;;;16.44;100.00;100341.25;104576;1269;61250;-66
2023/07/17 01:22:00;;;;;;;4.40;2.10;;;;;;;16.47;100.00;100344.13;105383;1264;60155;-65
2023/07/17 01:24:27;;;;;;;5.10;2.20;;;;;;;16.49;100.00;100348.13;104582;1264;75214;-69
2023/07/17 01:26:54;;;;;;;7.70;2.20;;;;;;;16.50;100.00;100352.67;104543;1270;67511;-66
2023/07/17 01:29:21;;;;;;;5.00;2.00;;;;;;;16.48;100.00;100355.75;104572;1266;71126;-65
2023/07/17 01:31:48;;;;;;;3.80;2.00;;;;;;;16.46;100.00;100357.86;105295;1264;61299;-66
2023/07/17 01:34:15;;;;;;;3.90;2.00;;;;;;;16.41;100.00;100361.33;104561;1268;61249;-65
2023/07/17 01:36:42;;;;;;;6.40;2.10;;;;;;;16.38;100.00;100363.96;104965;1267;74795;-70
2023/07/17 01:39:09;;;;;;;6.40;2.20;;;;;;;16.33;100.00;100365.29;104387;1264;67856;-65
2023/07/17 01:41:37;;;;;;;3.70;2.20;;;;;;;16.29;100.00;100364.64;104570;1270;72745;-66
2023/07/17 01:44:04;;;;;;;7.40;2.00;;;;;;;16.26;100.00;100359.45;104739;1269;61267;-66
2023/07/17 01:46:32;;;;;;;4.70;2.50;;;;;;;16.23;100.00;100362.95;104763;1269;61255;-66
2023/07/17 01:48:59;;;;;;;5.70;2.60;;;;;;;16.25;100.00;100363.54;104831;1269;74392;-70
2023/07/17 01:51:27;;;;;;;4.50;2.00;;;;;;;16.30;100.00;100365.73;105002;1268;65990;-66
2023/07/17 01:53:54;;;;;;;3.50;2.10;;;;;;;16.36;100.00;100369.42;104555;1268;72495;-66
2023/07/17 01:56:21;;;;;;;4.70;2.00;;;;;;;16.44;100.00;100370.80;104528;1269;61359;-67
2023/07/17 01:58:48;;;;;;;4.50;2.10;;;;;;;16.50;100.00;100368.95;105028;1266;61351;-68
2023/07/17 02:01:15;;;;;;;4.90;2.50;;;;;;;16.56;100.00;100376.79;105139;1269;74918;-66
2023/07/17 02:03:46;;;;;;;;;;;;;;;16.62;100.00;100378.09;105360;1267;66878;-66
2023/07/17 02:06:14;;;;;;;3.90;2.20;;;;;;;16.77;100.00;100372.20;104639;1267;72706;-67
2023/07/17 02:08:41;;;;;;;4.10;2.40;;;;;;;16.99;100.00;100369.91;104851;1263;61301;-70
2023/07/17 02:11:08;;;;;;;4.80;2.00;;;;;;;17.28;100.00;100367.79;104765;1267;61216;-70
2023/07/17 02:13:35;;;;;;;4.10;2.00;;;;;;;17.62;100.00;100364.94;104771;1266;73538;-64
2023/07/17 02:16:03;;;;;;;3.60;2.00;;;;;;;17.97;100.00;100358.52;104639;1264;67001;-68
2023/07/17 02:18:31;;;;;;;4.40;2.10;;;;;;;18.34;100.00;100360.00;104575;1263;71429;-65
2023/07/17 02:20:59;;;;;;;4.20;2.50;;;;;;;18.72;100.00;100349.51;104509;1267;61277;-65
2023/07/17 02:23:27;;;;;;;5.50;2.00;;;;;;;19.09;100.00;100346.85;104608;1264;61280;-66
2023/07/17 02:25:54;;;;;;;6.40;2.40;;;;;;;19.47;100.00;100338.41;104646;1264;73710;-65
2023/07/17 02:28:21;;;;;;;4.50;1.80;;;;;;;19.85;100.00;100332.37;104581;1267;65931;-69
2023/07/17 02:30:48;;;;;;;10.00;6.40;;;;;;;20.23;100.00;100325.68;105010;1267;72533;-69
2023/07/17 02:33:15;;;;;;;5.90;3.50;;;;;;;20.59;100.00;100321.39;104932;1264;61238;-68
2023/07/17 02:35:42;;;;;;;14.20;12.40;;;;;;;20.87;100.00;100316.13;104573;1268;61329;-68
2023/07/17 02:38:09;;;;;;;29.80;27.30;;;;;;;21.08;100.00;100305.85;104586;1267;73349;-70
2023/07/17 02:40:37;;;;;;;33.50;30.80;;;;;;;21.39;100.00;100301.24;104578;1267;65861;-69
2023/07/17 02:43:06;;;;;;;12.80;11.90;;;;;;;21.82;100.00;100302.30;104796;1265;72696;-67
2023/07/17 02:45:33;;;;;;;11.20;10.40;;;;;;;22.25;100.00;100303.14;104714;1267;61664;-72
2023/07/17 02:48:00;;;;;;;6.10;5.60;;;;;;;22.69;100.00;100308.13;104633;1264;61453;-66
2023/07/17 02:50:27;;;;;;;3.90;2.90;;;;;;;22.87;100.00;100307.86;105069;1267;74661;-68
2023/07/17 02:52:54;;;;;;;6.30;2.80;;;;;;;22.83;100.00;100309.55;104773;1263;67250;-67
2023/07/17 02:55:22;;;;;;;3.80;2.40;;;;;;;22.76;100.00;100311.02;104920;1263;72626;-66
2023/07/17 02:57:50;;;;;;;5.00;2.20;;;;;;;22.96;100.00;100312.35;104786;1266;61347;-71
2023/07/17 03:00:17;;;;;;;3.60;2.50;;;;;;;23.41;100.00;100314.67;105528;1263;61264;-71
2023/07/17 03:02:46;;;;;;;3.40;2.10;;;;;;;24.00;100.00;100314.61;104797;1264;73722;-66
2023/07/17 03:05:14;;;;;;;4.20;2.60;;;;;;;24.53;100.00;100316.63;104799;1264;67228;-67
2023/07/17 03:07:46;;;;;;;6.60;2.70;;;;;;;25.06;100.00;100312.27;104584;1267;71765;-65
2023/07/17 03:10:14;;;;;;;3.20;1.90;;;;;;;25.59;100.00;100316.45;104420;1264;61124;-66
2023/07/17 03:12:42;;;;;;;4.50;2.30;;;;;;;26.10;100.00;100320.64;104906;1264;61265;-66
2023/07/17 03:15:11;;;;;;;5.10;2.60;;;;;;;26.62;100.00;100321.78;104656;1264;74747;-65
2023/07/17 03:17:38;;;;;;;3.40;2.40;;;;;;;27.20;100.00;100319.61;104613;1264;67138;-65
2023/07/17 03:20:10;;;;;;;3.30;2.20;;;;;;;27.77;100.00;100322.99;104773;1263;72822;-70
2023/07/17 03:22:37;;;;;;;4.00;2.40;;;;;;;28.30;98.94;100326.71;104844;1270;61208;-70
2023/07/17 03:25:05;;;;;;;3.40;2.70;;;;;;;28.73;92.38;100316.42;104986;1267;61533;-66
2023/07/17 03:27:33;;;;;;;3.70;2.40;;;;;;;29.15;85.06;100320.02;104483;1264;73725;-65
2023/07/17 03:30:01;;;;;;;4.50;2.20;;;;;;;29.52;77.39;100319.97;104639;1269;67193;-66
2023/07/17 03:32:33;;;;;;;3.60;2.50;;;;;;;29.81;72.69;100313.48;104851;1266;72066;-68
2023/07/17 03:35:01;;;;;;;4.00;2.50;;;;;;;30.03;66.65;100310.40;104892;1267;61334;-64
2023/07/17 03:37:29;;;;;;;3.90;2.40;;;;;;;30.16;64.53;100312.30;104770;1264;61341;-67
2023/07/17 03:39:56;;;;;;;3.70;2.30;;;;;;;30.29;61.66;100311.17;104441;1267;73293;-70
2023/07/17 03:42:24;;;;;;;3.50;2.20;;;;;;;30.40;59.34;100313.73;105239;1265;67026;-69
2023/07/17 03:44:51;;;;;;;3.00;1.80;;;;;;;30.66;60.71;100323.29;104318;1268;71634;-65
2023/07/17 03:47:19;;;;;;;3.50;2.00;;;;;;;31.16;58.72;100317.61;104531;1264;61261;-66
2023/07/17 03:49:48;;;;;;;4.30;2.70;;;;;;;31.83;54.38;100318.39;104891;1263;61248;-68
2023/07/17 03:52:15;;;;;;;4.60;2.30;;;;;;;32.35;49.93;100313.58;104491;1267;74696;-70
2023/07/17 03:54:44;;;;;;;3.80;2.00;;;;;;;32.78;47.23;100319.66;104833;1264;67708;-66
2023/07/17 03:57:11;;;;;;;2.80;1.90;;;;;;;33.12;43.97;100323.44;104530;1267;64112;-66
2023/07/17 03:59:52;;;;;;;3.80;2.20;;;;;;;33.26;43.00;100320.03;104803;1264;61355;-65
2023/07/17 04:02:22;;;;;;;3.70;2.20;;;;;;;33.51;42.90;100319.72;104343;1264;61370;-65
2023/07/17 04:04:51;;;;;;;3.70;2.70;;;;;;;33.98;41.72;100314.54;105111;1267;66237;-64
2023/07/17 04:07:19;;;;;;;3.60;2.40;;;;;;;34.56;39.60;100311.56;104901;1267;61169;-67
2023/07/17 04:09:46;;;;;;;2.40;1.70;;;;;;;34.90;37.57;100310.48;104682;1265;64067;-67
2023/07/17 04:12:14;;;;;;;3.20;1.90;;;;;;;35.07;36.92;100310.75;104709;1269;61353;-65
2023/07/17 04:14:42;;;;;;;3.50;2.10;;;;;;;35.27;36.37;100314.29;104728;1268;61323;-64
2023/07/17 04:17:10;;;;;;;3.50;2.10;;;;;;;35.49;35.79;100313.40;104587;1267;66089;-65
2023/07/17 04:19:37;;;;;;;3.20;2.10;;;;;;;35.75;35.18;100318.61;106535;1267;61652;-64
2023/07/17 04:22:04;;;;;;;3.80;2.00;;;;;;;35.99;34.66;100321.02;104546;1267;64932;-64
2023/07/17 04:24:31;;;;;;;4.60;1.90;;;;;;;36.21;34.47;100326.01;104510;1264;61156;-64
2023/07/17 04:26:58;;;;;;;2.70;2.00;;;;;;;36.49;33.86;100327.57;104348;1267;61276;-64
2023/07/17 04:29:26;;;;;;;4.10;2.40;;;;;;;36.70;33.08;100326.21;104864;1263;65447;-69
2023/07/17 04:31:56;;;;;;;4.30;2.10;;;;;;;36.70;32.78;100323.34;104747;1270;67195;-64
2023/07/17 04:34:24;;;;;;;3.40;2.20;;;;;;;36.73;32.98;100324.95;104422;1266;63984;-64
2023/07/17 04:36:51;;;;;;;3.00;2.30;;;;;;;36.98;32.49;100323.04;104886;1264;61226;-64
2023/07/17 04:39:18;;;;;;;3.10;2.20;;;;;;;37.30;32.00;100322.15;104772;1264;61200;-70
2023/07/17 04:41:45;;;;;;;4.80;2.50;;;;;;;37.59;31.09;100320.16;104544;1264;64867;-65
2023/07/17 04:44:13;;;;;;;3.40;2.40;;;;;;;37.75;30.77;100320.33;104592;1266;61874;-65
2023/07/17 04:46:41;;;;;;;3.90;2.70;;;;;;;37.98;30.31;100321.92;104995;1265;63975;-69
2023/07/17 04:49:09;;;;;;;3.10;2.40;;;;;;;38.11;30.00;100320.41;104726;1270;61308;-65
2023/07/17 04:51:36;;;;;;;3.40;2.20;;;;;;;38.23;29.72;100319.72;105005;1266;61248;-71
2023/07/17 04:54:04;;;;;;;4.30;2.40;;;;;;;38.52;29.44;100323.14;104613;1268;66094;-66
2023/07/17 04:56:31;;;;;;;3.10;2.50;;;;;;;38.88;28.88;100324.59;104554;1264;61271;-65
2023/07/17 04:58:59;;;;;;;4.80;2.60;;;;;;;39.17;28.48;100323.79;104894;1264;64002;-65
2023/07/17 05:14:25;;;;;;;3.60;2.60;;;;;;;40.61;26.49;100328.27;103058;1287;605211;-68
2023/07/17 05:16:53;;;;;;;4.40;2.70;;;;;;;41.19;25.29;100320.30;104181;1266;133136;-63
2023/07/17 05:19:22;;;;;;;3.10;2.50;;;;;;;41.20;25.44;100324.38;104612;1269;59221;-64
2023/07/17 05:21:50;;;;;;;3.20;2.90;;;;;;;41.20;25.10;100323.44;105406;1270;62286;-64
2023/07/17 05:24:18;;;;;;;3.20;2.90;;;;;;;41.09;25.04;100324.04;104301;1268;59489;-64
2023/07/17 05:26:47;;;;;;;5.10;2.90;;;;;;;41.02;25.40;100324.35;104668;1267;63204;-66
2023/07/17 05:29:14;;;;;;;4.20;3.10;;;;;;;41.09;25.55;100323.18;104401;1272;59245;-64
2023/07/17 05:31:42;;;;;;;4.60;2.80;;;;;;;41.26;25.28;100326.64;104226;1270;58902;-65
2023/07/17 05:34:10;;;;;;;2.60;2.20;;;;;;;41.39;25.09;100325.63;104713;1264;63515;-69
2023/07/17 05:36:38;;;;;;;8.00;2.90;;;;;;;41.46;25.18;100326.89;104818;1259;59324;-68
2023/07/17 05:39:06;;;;;;;3.60;3.10;;;;;;;41.51;25.15;100325.88;105161;1259;64385;-65
2023/07/17 05:41:34;;;;;;;3.10;2.80;;;;;;;41.57;24.99;100325.25;105137;1257;59660;-65
2023/07/17 05:44:02;;;;;;;3.50;2.50;;;;;;;41.54;25.24;100329.95;104841;1260;60067;-68
2023/07/17 05:46:30;;;;;;;3.50;2.70;;;;;;;41.54;25.24;100328.77;104960;1256;64232;-65
2023/07/17 05:48:58;;;;;;;4.10;2.50;;;;;;;41.59;25.12;100328.14;104905;1254;59656;-66
2023/07/17 05:51:26;;;;;;;4.40;2.80;;;;;;;41.75;24.97;100326.95;105088;1256;63843;-63
2023/07/17 05:53:54;;;;;;;3.90;3.00;;;;;;;41.90;24.80;100320.91;104993;1256;59726;-64
2023/07/17 05:56:22;;;;;;;3.50;2.80;;;;;;;42.08;24.65;100319.39;105181;1258;59552;-65
2023/07/17 05:58:50;;;;;;;4.90;3.20;;;;;;;42.12;24.76;100322.58;105005;1260;64102;-64
2023/07/17 06:01:18;;;;;;;3.00;2.60;;;;;;;42.24;24.81;100322.08;105092;1260;59713;-65
2023/07/17 06:03:46;;;;;;;4.30;3.40;;;;;;;42.44;24.68;100323.27;105161;1256;63869;-64
2023/07/17 06:06:14;;;;;;;4.50;3.30;;;;;;;42.58;24.42;100321.78;105029;1254;59597;-65
2023/07/17 06:08:42;;;;;;;4.00;3.00;;;;;;;42.70;24.52;100319.54;105078;1258;59713;-68
2023/07/17 06:11:09;;;;;;;3.70;3.00;;;;;;;42.89;24.10;100321.15;105087;1259;64744;-67
2023/07/17 06:13:37;;;;;;;3.70;3.30;;;;;;;42.94;23.77;100319.85;105118;1258;59238;-66
2023/07/17 06:16:05;;;;;;;6.80;3.20;;;;;;;42.97;23.62;100319.61;105125;1261;64345;-64
2023/07/17 06:18:33;;;;;;;3.30;3.00;;;;;;;43.06;23.29;100315.70;105131;1260;59561;-64
2023/07/17 06:21:03;;;;;;;4.30;3.10;;;;;;;43.02;23.30;100312.83;105196;1260;59686;-65
2023/07/17 06:23:30;;;;;;;4.50;3.50;;;;;;;42.88;23.17;100312.86;105155;1259;63139;-66
2023/07/17 06:26:00;;;;;;;3.20;2.80;;;;;;;42.63;23.34;100317.77;105241;1254;59548;-66
2023/07/17 06:28:29;;;;;;;4.00;2.80;;;;;;;42.44;23.74;100316.60;105179;1254;63787;-64
2023/07/17 06:30:56;;;;;;;6.20;2.90;;;;;;;42.48;24.08;100318.15;105003;1258;59696;-63
2023/07/17 06:33:24;;;;;;;3.50;3.10;;;;;;;42.62;23.92;100319.41;105059;1256;59878;-63
2023/07/17 06:35:52;;;;;;;3.80;3.10;;;;;;;42.70;23.42;100316.80;105268;1259;73104;-65
2023/07/17 06:38:20;;;;;;;3.30;2.70;;;;;;;42.72;23.37;100317.97;105185;1260;59625;-63
2023/07/17 06:40:52;;;;;;;3.10;2.50;;;;;;;42.60;23.13;100318.26;105400;1256;63727;-65
2023/07/17 06:43:20;;;;;;;4.50;2.60;;;;;;;42.50;23.41;100317.58;105102;1260;59613;-65
2023/07/17 06:45:48;;;;;;;3.10;2.50;;;;;;;42.45;23.08;100319.41;105363;1254;59670;-65
2023/07/17 06:48:16;;;;;;;3.20;2.70;;;;;;;42.11;23.28;100317.33;105165;1254;66442;-67
2023/07/17 06:50:45;;;;;;;2.90;2.60;;;;;;;41.85;23.68;100316.92;105134;1259;59613;-68
2023/07/17 06:53:13;;;;;;;2.60;2.40;;;;;;;41.76;23.59;100318.57;105234;1260;62792;-62
2023/07/17 06:55:41;;;;;;;4.90;2.80;;;;;;;41.62;23.51;100319.05;104857;1260;59624;-64
2023/07/17 06:58:09;;;;;;;4.10;2.90;;;;;;;41.39;23.82;100319.45;105163;1260;59510;-68
2023/07/17 07:00:37;;;;;;;3.70;3.10;;;;;;;41.42;24.02;100318.05;105128;1255;64153;-65
2023/07/17 07:03:05;;;;;;;2.90;2.30;;;;;;;41.56;23.77;100318.77;105120;1255;61304;-65
2023/07/17 07:05:33;;;;;;;4.00;2.30;;;;;;;41.57;23.62;100319.15;105799;1260;62533;-64
2023/07/17 07:08:02;;;;;;;3.10;2.10;;;;;;;41.40;23.80;100318.29;105284;1256;59442;-67
2023/07/17 07:10:31;;;;;;;3.20;2.30;;;;;;;41.16;23.94;100321.48;105075;1256;59656;-65
2023/07/17 07:12:59;;;;;;;3.70;2.40;;;;;;;40.94;24.07;100322.05;106928;1256;64261;-67
2023/07/17 07:15:26;;;;;;;5.10;2.30;;;;;;;40.77;24.05;100323.02;105271;1257;59964;-66
2023/07/17 07:17:54;;;;;;;5.00;3.20;;;;;;;40.48;24.41;100319.33;104974;1257;62463;-65
2023/07/17 07:26:25;;;;;;;2.90;1.90;;;;;;;40.61;24.83;100307.21;101957;1291;600382;-63
2023/07/17 07:28:52;;;;;;;3.60;2.30;;;;;;;40.61;24.57;100309.47;104681;1267;59353;-63
2023/07/17 07:31:20;;;;;;;4.40;2.60;;;;;;;40.58;24.53;100304.94;104556;1266;59257;-65
2023/07/17 07:33:48;;;;;;;4.50;2.00;;;;;;;40.56;24.45;100301.57;104523;1265;63384;-67
2023/07/17 07:36:16;;;;;;;2.80;2.00;;;;;;;40.41;24.49;100299.23;104589;1267;59222;-69
2023/07/17 07:38:44;;;;;;;3.70;2.10;;;;;;;40.21;24.90;100297.59;104257;1266;64203;-65
2023/07/17 07:41:12;;;;;;;3.50;1.90;;;;;;;39.98;24.54;100296.05;104526;1267;189433;-64
2023/07/17 07:43:39;;;;;;;4.20;2.20;;;;;;;39.72;24.76;100297.05;104610;1262;59340;-66
2023/07/17 07:46:07;;;;;;;2.80;1.90;;;;;;;39.53;24.84;100295.20;104683;1263;63827;-65
2023/07/17 07:48:35;;;;;;;3.40;1.90;;;;;;;39.39;24.81;100293.67;104693;1269;59641;-67
2023/07/17 07:51:03;;;;;;;2.80;1.70;;;;;;;39.31;24.95;100293.31;104742;1264;62546;-64
2023/07/17 07:53:31;;;;;;;2.90;1.80;;;;;;;39.28;25.41;100295.63;104723;1263;59650;-66
2023/07/17 07:56:09;;;;;;;2.30;1.90;;;;;;;39.40;25.98;100299.08;105217;1256;59496;-69
2023/07/17 07:58:37;;;;;;;2.80;1.70;;;;;;;39.74;25.59;100299.10;105041;1252;63562;-66
2023/07/17 08:01:05;;;;;;;2.80;1.60;;;;;;;39.96;24.77;100295.58;105383;1254;59532;-64
2023/07/17 08:03:35;;;;;;;2.40;1.80;;;;;;;39.92;24.93;100297.89;105217;1254;62651;-65
2023/07/17 08:06:03;;;;;;;3.60;1.90;;;;;;;39.93;24.60;100298.44;105250;1254;59616;-64
2023/07/17 08:08:32;;;;;;;2.80;1.60;;;;;;;39.83;24.51;100297.77;105374;1256;59586;-67
2023/07/17 08:11:01;;;;;;;4.70;1.70;;;;;;;39.71;24.59;100297.44;105427;1254;65079;-66
2023/07/17 08:13:29;;;;;;;3.40;1.90;;;;;;;39.68;24.11;100294.22;105608;1253;59691;-68
2023/07/17 08:15:57;;;;;;;2.80;1.50;;;;;;;39.55;23.74;100293.72;105202;1257;64193;-66
2023/07/17 08:26:11;;;;;;;2.10;1.50;;;;;;;39.02;25.02;100290.70;102283;1290;601440;-64
2023/07/17 08:28:40;;;;;;;4.30;1.60;;;;;;;39.25;24.88;100288.58;106727;1264;59174;-65
2023/07/17 08:31:08;;;;;;;4.60;2.20;;;;;;;39.54;24.99;100288.65;109206;1254;57585;-67
2023/07/17 08:33:36;;;;;;;2.60;1.90;;;;;;;39.58;24.52;100287.90;108211;1256;63430;-64
2023/07/17 08:36:04;;;;;;;3.50;1.30;;;;;;;39.31;24.43;100283.73;105700;1255;59232;-66
2023/07/17 08:38:32;;;;;;;4.50;2.10;;;;;;;39.12;24.92;100286.04;105581;1259;62490;-65
2023/07/17 08:41:00;;;;;;;2.70;1.70;;;;;;;39.05;24.43;100284.80;105839;1257;220121;-67
2023/07/17 08:43:28;;;;;;;2.00;1.30;;;;;;;38.90;23.88;100289.55;105852;1256;59282;-65
2023/07/17 08:45:56;;;;;;;3.10;1.40;;;;;;;38.55;24.10;100287.99;105812;1256;62103;-65
2023/07/17 08:48:27;;;;;;;2.80;1.30;;;;;;;38.39;24.55;100288.45;105653;1251;59234;-65
2023/07/17 08:50:55;;;;;;;4.40;1.40;;;;;;;38.42;24.61;100287.61;105818;1257;63766;-65
2023/07/17 08:53:26;;;;;;;2.80;1.40;;;;;;;38.43;24.11;100286.31;105753;1256;59739;-65
2023/07/17 08:55:55;;;;;;;3.10;1.40;;;;;;;38.41;24.33;100286.68;105981;1251;60902;-65
2023/07/17 08:58:24;;;;;;;2.60;1.30;;;;;;;38.63;24.77;100287.70;105807;1254;64125;-65
2023/07/17 09:00:51;;;;;;;2.70;1.70;;;;;;;38.84;24.29;100283.90;106045;1254;59682;-68
2023/07/17 09:03:19;;;;;;;2.70;1.80;;;;;;;38.86;24.80;100283.45;105739;1252;62677;-65
2023/07/17 09:05:48;;;;;;;3.20;1.50;;;;;;;38.74;24.84;100284.70;105639;1251;59699;-65
2023/07/17 09:08:16;;;;;;;2.40;1.40;;;;;;;38.68;25.27;100283.63;105714;1251;59678;-65
2023/07/17 09:10:44;;;;;;;2.60;1.40;;;;;;;38.75;25.44;100279.73;105881;1254;62902;-66
2023/07/17 09:13:14;;;;;;;3.20;1.80;;;;;;;38.74;24.68;100282.16;107379;1254;68272;-65
2023/07/17 09:15:42;;;;;;;3.60;1.50;;;;;;;38.39;24.23;100282.89;106170;1252;62592;-69
2023/07/17 09:18:09;;;;;;;3.00;1.50;;;;;;;37.66;24.88;100282.55;105882;1251;59971;-65
2023/07/17 09:20:37;;;;;;;3.10;1.60;;;;;;;37.12;25.99;100279.73;105903;1251;59491;-64
2023/07/17 09:23:05;;;;;;;3.70;1.40;;;;;;;36.94;26.43;100279.65;105911;1254;64185;-66
2023/07/17 09:25:33;;;;;;;2.10;1.40;;;;;;;36.78;26.70;100279.58;106182;1252;59535;-67
2023/07/17 09:28:01;;;;;;;5.20;2.00;;;;;;;36.78;27.43;100278.10;105660;1257;63831;-66
2023/07/17 09:30:30;;;;;;;3.10;1.90;;;;;;;36.92;27.47;100280.61;106039;1254;59750;-65
2023/07/17 09:33:04;;;;;;;3.30;1.60;;;;;;;37.05;26.66;100278.36;105990;1254;60145;-70
2023/07/17 09:35:32;;;;;;;2.80;1.50;;;;;;;36.97;26.46;100277.55;106014;1251;63044;-70
2023/07/17 09:45:43;;;;;;;3.80;1.90;;;;;;;37.41;25.88;100279.55;102451;1289;600470;-67
2023/07/17 09:48:13;;;;;;;2.30;1.80;;;;;;;37.29;25.97;100276.98;104707;1270;59098;-66
2023/07/17 09:50:41;;;;;;;3.30;1.70;;;;;;;37.20;26.31;100274.43;105133;1270;59376;-66
2023/07/17 09:53:09;;;;;;;2.70;1.70;;;;;;;37.14;26.89;100271.69;104803;1263;62137;-68
2023/07/17 09:55:37;;;;;;;2.60;1.50;;;;;;;37.17;27.12;100282.14;104133;1266;59373;-63
2023/07/17 09:58:05;;;;;;;2.80;1.90;;;;;;;37.21;26.59;100276.71;104847;1265;63830;-65
2023/07/17 10:00:32;;;;;;;5.50;1.80;;;;;;;37.35;27.11;100275.39;104893;1263;222850;-68
2023/07/17 10:03:03;;;;;;;2.50;1.70;;;;;;;37.67;26.76;100271.86;104995;1264;59431;-66
2023/07/17 10:05:32;;;;;;;2.20;1.50;;;;;;;38.09;26.37;100273.09;105299;1256;63518;-68
2023/07/17 10:08:03;;;;;;;2.20;1.50;;;;;;;38.36;26.10;100270.42;105142;1255;59215;-65
2023/07/17 10:10:31;;;;;;;2.90;1.40;;;;;;;38.44;26.08;100264.77;105036;1259;62539;-69
2023/07/17 10:12:59;;;;;;;2.50;1.50;;;;;;;38.43;25.53;100267.87;105065;1257;59641;-67
2023/07/17 10:15:27;;;;;;;2.40;1.40;;;;;;;38.33;24.85;100269.52;105102;1256;60010;-67
2023/07/17 10:17:56;;;;;;;2.80;1.60;;;;;;;38.08;25.01;100268.73;105170;1255;62896;-69
2023/07/17 10:20:25;;;;;;;2.10;1.50;;;;;;;38.03;25.66;100262.13;105392;1256;59781;-65
2023/07/17 10:22:53;;;;;;;1.80;1.30;;;;;;;37.90;25.06;100256.49;105205;1257;62653;-67
2023/07/17 10:25:21;;;;;;;2.10;1.60;;;;;;;37.57;25.91;100259.44;105338;1256;60245;-69
2023/07/17 10:28:00;;;;;;;3.40;1.60;;;;;;;37.42;26.32;100258.58;104786;1260;59632;-64
2023/07/17 10:30:38;;;;;;;2.50;1.70;;;;;;;37.39;26.55;100254.55;105177;1261;64211;-69
2023/07/17 10:33:15;;;;;;;2.10;1.50;;;;;;;37.51;26.87;100255.84;104950;1261;59612;-69
2023/07/17 10:35:50;;;;;;;2.40;1.30;;;;;;;37.65;26.45;100258.40;104903;1257;63783;-65
2023/07/17 10:38:22;;;;;;;3.10;1.40;;;;;;;37.53;27.01;100261.95;105052;1260;59641;-66
2023/07/17 10:41:20;;;;;;;2.30;1.70;;;;;;;37.17;25.91;100257.77;104910;1253;59580;-67
2023/07/17 10:43:55;;;;;;;3.90;1.60;;;;;;;36.52;26.21;100257.71;105100;1253;62996;-67
2023/07/17 10:46:43;;;;;;;2.30;1.70;;;;;;;36.05;27.03;100261.16;104894;1253;60952;-65
2023/07/17 10:49:15;;;;;;;3.20;1.60;;;;;;;35.76;28.28;100256.93;105133;1259;73166;-66
2023/07/17 10:51:47;;;;;;;3.30;1.60;;;;;;;35.83;28.30;100258.89;105142;1257;59740;-64
2023/07/17 10:54:16;;;;;;;2.70;1.50;;;;;;;36.01;28.12;100254.17;105074;1254;59749;-63
2023/07/17 10:56:46;;;;;;;1.90;1.50;;;;;;;36.07;27.27;100253.08;105103;1260;64774;-63
2023/07/17 11:07:07;;;;;;;2.20;1.50;;;;;;;35.51;29.38;100259.23;102015;1289;599941;-64
2023/07/17 11:09:35;;;;;;;2.30;1.70;;;;;;;35.58;29.38;100254.52;104609;1267;59239;-64
2023/07/17 11:12:03;;;;;;;2.70;1.70;;;;;;;35.76;29.61;100254.15;104774;1270;59268;-64
2023/07/17 11:14:31;;;;;;;4.90;1.60;;;;;;;35.97;29.79;100254.01;104604;1267;63404;-65
2023/07/17 11:16:59;;;;;;;4.70;1.90;;;;;;;36.20;29.72;100253.27;104593;1271;59190;-64
2023/07/17 11:19:26;;;;;;;2.50;1.60;;;;;;;36.43;29.26;100249.56;104787;1266;63921;-66
2023/07/17 11:21:55;;;;;;;5.10;1.80;;;;;;;36.71;28.47;100240.48;104456;1267;59637;-63
2023/07/17 11:24:23;;;;;;;3.70;1.70;;;;;;;36.88;28.08;100234.82;104611;1268;59401;-65
2023/07/17 11:26:51;;;;;;;2.10;1.40;;;;;;;37.02;27.70;100232.90;104773;1268;63366;-65
2023/07/17 11:29:18;;;;;;;2.10;1.50;;;;;;;37.14;27.53;100232.02;105203;1268;59222;-63
2023/07/17 11:31:46;;;;;;;2.90;1.50;;;;;;;37.26;27.82;100234.14;104607;1269;63818;-64
2023/07/17 11:34:14;;;;;;;3.00;1.60;;;;;;;37.40;28.14;100235.39;104450;1271;59637;-64
2023/07/17 11:36:46;;;;;;;2.60;1.20;;;;;;;37.39;28.07;100230.19;104701;1271;59511;-66
2023/07/17 11:39:18;;;;;;;3.10;1.70;;;;;;;37.37;27.67;100231.08;104635;1263;62918;-64
2023/07/17 11:41:53;;;;;;;2.70;1.80;;;;;;;37.28;27.94;100229.45;104599;1268;59630;-64
2023/07/17 11:44:23;;;;;;;2.70;1.50;;;;;;;37.17;28.01;100231.14;104552;1263;72713;-65
2023/07/17 11:46:52;;;;;;;3.50;1.80;;;;;;;37.02;27.79;100225.23;105305;1268;59899;-65
2023/07/17 11:49:20;;;;;;;3.30;1.60;;;;;;;36.89;27.59;100224.27;105130;1266;60115;-66
2023/07/17 11:51:48;;;;;;;2.80;1.60;;;;;;;36.85;27.95;100221.56;104827;1264;65613;-64
2023/07/17 11:54:16;;;;;;;6.00;1.80;;;;;;;36.87;28.25;100219.52;105001;1264;59617;-63
2023/07/17 11:56:44;;;;;;;3.00;1.80;;;;;;;36.85;28.36;100217.30;105030;1266;63764;-67
2023/07/17 11:59:19;;;;;;;2.30;1.50;;;;;;;36.69;28.09;100221.05;104640;1265;59733;-65
2023/07/17 12:01:47;;;;;;;2.50;1.60;;;;;;;36.36;28.14;100216.52;104898;1259;59826;-64